createdAt,value
2023-04-23T00:00:37.964Z,8.44
2023-04-23T00:03:10.332Z,8.41
2023-04-23T00:05:42.075Z,8.35
2023-04-23T00:08:11.669Z,8.38
2023-04-23T00:10:39.763Z,8.38
2023-04-23T00:13:07.970Z,8.35
2023-04-23T00:15:36.656Z,8.33
2023-04-23T00:18:04.541Z,8.25
2023-04-23T00:20:32.441Z,8.22
2023-04-23T00:23:02.037Z,8.26
2023-04-23T00:25:29.986Z,8.25
2023-04-23T00:27:58.155Z,8.22
2023-04-23T00:30:25.969Z,8.21
2023-04-23T00:32:53.771Z,8.20
2023-04-23T00:35:21.594Z,8.23
2023-04-23T00:37:49.418Z,8.23
2023-04-23T00:40:18.532Z,8.24
2023-04-23T00:42:46.335Z,8.18
2023-04-23T00:45:14.158Z,8.23
2023-04-23T00:47:42.376Z,8.22
2023-04-23T00:50:11.448Z,8.22
2023-04-23T00:52:40.804Z,8.19
2023-04-23T00:55:09.587Z,8.22
2023-04-23T00:57:39.798Z,8.22
2023-04-23T01:00:09.418Z,8.13
2023-04-23T01:02:38.489Z,8.19
2023-04-23T01:05:08.695Z,8.15
2023-04-23T01:07:37.022Z,8.18
2023-04-23T01:10:05.916Z,8.17
2023-04-23T01:12:34.628Z,8.19
2023-04-23T01:15:05.761Z,8.12
2023-04-23T01:17:34.488Z,8.22
2023-04-23T01:20:02.369Z,8.22
2023-04-23T01:22:31.507Z,8.21
2023-04-23T01:24:59.344Z,8.22
2023-04-23T01:27:27.273Z,8.13
2023-04-23T01:29:55.689Z,8.16
2023-04-23T01:32:23.714Z,8.17
2023-04-23T01:34:53.957Z,8.19
2023-04-23T01:37:24.368Z,8.18
2023-04-23T01:39:53.821Z,8.21
2023-04-23T01:42:23.349Z,8.22
2023-04-23T01:44:52.338Z,8.23
2023-04-23T01:47:21.241Z,8.23
2023-04-23T01:49:49.357Z,8.23
2023-04-23T01:52:17.349Z,8.28
2023-04-23T01:54:45.129Z,8.29
2023-04-23T01:57:14.241Z,8.30
2023-04-23T01:59:43.655Z,8.28
2023-04-23T02:02:13.936Z,8.31
2023-04-23T02:04:45.544Z,8.34
2023-04-23T02:07:13.579Z,8.35
2023-04-23T02:09:42.051Z,8.38
2023-04-23T02:12:09.830Z,8.38
2023-04-23T02:14:39.198Z,8.40
2023-04-23T02:17:07.146Z,8.39
2023-04-23T02:19:35.831Z,8.39
2023-04-23T02:22:03.624Z,8.40
2023-04-23T02:24:31.362Z,8.41
2023-04-23T02:26:59.141Z,8.41
2023-04-23T02:29:26.909Z,8.42
2023-04-23T02:31:56.110Z,8.41
2023-04-23T02:34:24.089Z,8.40
2023-04-23T02:36:52.780Z,8.39
2023-04-23T02:39:20.619Z,8.39
2023-04-23T02:41:49.147Z,8.41
2023-04-23T02:44:16.926Z,8.39
2023-04-23T02:46:44.747Z,8.37
2023-04-23T02:49:14.690Z,8.31
2023-04-23T02:51:42.472Z,8.38
2023-04-23T02:54:11.237Z,8.38
2023-04-23T02:56:38.939Z,8.38
2023-04-23T02:59:07.120Z,8.38
2023-04-23T03:01:34.881Z,8.39
2023-04-23T03:04:03.593Z,8.36
2023-04-23T03:06:34.581Z,8.38
2023-04-23T03:09:02.671Z,8.37
2023-04-23T03:11:30.411Z,8.29
2023-04-23T03:13:58.302Z,8.36
2023-04-23T03:16:26.933Z,8.38
2023-04-23T03:18:54.766Z,8.37
2023-04-23T03:21:22.510Z,8.38
2023-04-23T03:23:51.608Z,8.38
2023-04-23T03:26:19.426Z,8.39
2023-04-23T03:28:47.211Z,8.37
2023-04-23T03:31:15.003Z,8.37
2023-04-23T03:33:42.799Z,8.35
2023-04-23T03:36:10.943Z,8.33
2023-04-23T03:38:38.882Z,8.27
2023-04-23T03:41:08.035Z,8.31
2023-04-23T03:43:35.783Z,8.31
2023-04-23T03:46:03.678Z,8.28
2023-04-23T03:48:31.726Z,8.30
2023-04-23T03:50:59.654Z,8.28
2023-04-23T03:53:28.008Z,8.28
2023-04-23T03:55:55.794Z,8.27
2023-04-23T03:58:25.086Z,8.25
2023-04-23T04:00:53.091Z,8.23
2023-04-23T04:03:21.590Z,8.17
2023-04-23T04:05:49.595Z,8.19
2023-04-23T04:08:17.596Z,8.14
2023-04-23T04:10:45.422Z,8.08
2023-04-23T04:13:13.330Z,8.17
2023-04-23T04:15:42.513Z,8.15
2023-04-23T04:18:10.693Z,8.00
2023-04-23T04:20:38.444Z,8.12
2023-04-23T04:23:06.293Z,8.13
2023-04-23T04:25:34.026Z,8.08
2023-04-23T04:28:01.815Z,8.10
2023-04-23T04:30:29.599Z,8.10
2023-04-23T04:32:59.946Z,8.07
2023-04-23T04:35:28.059Z,8.05
2023-04-23T04:37:55.886Z,8.04
2023-04-23T04:40:24.140Z,8.03
2023-04-23T04:42:52.966Z,8.03
2023-04-23T04:45:20.846Z,7.98
2023-04-23T04:47:48.828Z,8.00
2023-04-23T04:50:18.185Z,8.01
2023-04-23T04:52:45.970Z,8.00
2023-04-23T04:55:13.909Z,7.90
2023-04-23T04:57:41.653Z,7.96
2023-04-23T05:00:24.332Z,7.93
2023-04-23T05:02:52.451Z,7.94
2023-04-23T05:05:23.685Z,7.89
2023-04-23T05:07:51.821Z,7.99
2023-04-23T05:10:19.700Z,8.00
2023-04-23T05:12:47.815Z,8.01
2023-04-23T05:15:16.446Z,8.06
2023-04-23T05:17:45.105Z,8.08
2023-04-23T05:20:13.139Z,8.16
2023-04-23T05:22:43.438Z,8.13
2023-04-23T05:25:12.733Z,8.21
2023-04-23T05:27:41.178Z,8.21
2023-04-23T05:30:10.883Z,8.25
2023-04-23T05:32:39.290Z,8.31
2023-04-23T05:35:08.029Z,8.32
2023-04-23T05:37:35.904Z,8.36
2023-04-23T05:40:07.210Z,8.40
2023-04-23T05:42:35.969Z,8.43
2023-04-23T05:45:06.635Z,8.45
2023-04-23T05:47:35.804Z,8.51
2023-04-23T05:50:03.631Z,8.54
2023-04-23T05:52:33.435Z,8.59
2023-04-23T05:55:01.297Z,8.63
2023-04-23T05:57:30.385Z,8.64
2023-04-23T05:59:58.163Z,8.72
2023-04-23T06:02:26.220Z,8.78
2023-04-23T06:04:54.413Z,8.83
2023-04-23T06:07:22.294Z,8.86
2023-04-23T06:09:50.080Z,8.96
2023-04-23T06:12:17.896Z,9.03
2023-04-23T06:14:47.675Z,9.07
2023-04-23T06:17:15.424Z,9.18
2023-04-23T06:19:43.252Z,9.28
2023-04-23T06:22:11.106Z,9.38
2023-04-23T06:24:39.152Z,9.46
2023-04-23T06:27:07.261Z,9.55
2023-04-23T06:29:35.038Z,9.68
2023-04-23T06:32:05.111Z,9.76
2023-04-23T06:34:32.975Z,9.88
2023-04-23T06:37:01.021Z,9.98
2023-04-23T06:39:28.808Z,10.01
2023-04-23T06:41:58.132Z,10.17
2023-04-23T06:44:25.929Z,10.27
2023-04-23T06:46:53.880Z,10.38
2023-04-23T06:49:24.910Z,10.48
2023-04-23T06:51:52.721Z,10.55
2023-04-23T06:54:20.475Z,10.68
2023-04-23T06:56:48.242Z,10.83
2023-04-23T06:59:17.734Z,10.95
2023-04-23T07:01:45.512Z,11.02
2023-04-23T07:04:13.358Z,11.12
2023-04-23T07:06:42.516Z,11.25
2023-04-23T07:09:10.352Z,11.37
2023-04-23T07:11:38.142Z,11.53
2023-04-23T07:14:06.420Z,11.63
2023-04-23T07:16:36.656Z,11.75
2023-04-23T07:19:04.498Z,11.85
2023-04-23T07:21:33.130Z,11.98
2023-04-23T07:24:06.849Z,12.06
2023-04-23T07:26:35.129Z,12.12
2023-04-23T07:29:03.230Z,12.33
2023-04-23T07:31:31.099Z,12.44
2023-04-23T07:34:01.307Z,12.54
2023-04-23T07:36:29.285Z,12.62
2023-04-23T07:38:57.183Z,12.73
2023-04-23T07:41:26.423Z,12.79
2023-04-23T07:43:54.422Z,12.92
2023-04-23T07:46:22.233Z,13.03
2023-04-23T07:48:50.188Z,13.10
2023-04-23T07:51:18.057Z,13.17
2023-04-23T07:53:46.983Z,13.26
2023-04-23T07:56:15.645Z,13.36
2023-04-23T07:58:44.748Z,13.42
2023-04-23T08:01:12.533Z,13.52
2023-04-23T08:03:40.485Z,13.64
2023-04-23T08:06:08.553Z,13.75
2023-04-23T08:08:36.366Z,13.83
2023-04-23T08:11:04.159Z,13.91
2023-04-23T08:13:31.958Z,13.96
2023-04-23T08:16:01.157Z,14.05
2023-04-23T08:18:28.928Z,14.15
2023-04-23T08:20:57.575Z,14.21
2023-04-23T08:23:25.726Z,14.29
2023-04-23T08:25:53.495Z,14.39
2023-04-23T08:28:21.374Z,14.45
2023-04-23T08:30:49.274Z,14.55
2023-04-23T08:33:18.464Z,14.61
2023-04-23T08:35:46.468Z,14.72
2023-04-23T08:38:14.205Z,14.85
2023-04-23T08:40:43.582Z,14.89
2023-04-23T08:43:17.261Z,14.92
2023-04-23T08:45:47.588Z,14.97
2023-04-23T08:48:15.955Z,15.07
2023-04-23T08:50:46.029Z,15.12
2023-04-23T08:53:19.173Z,15.23
2023-04-23T08:55:48.077Z,15.31
2023-04-23T08:58:16.464Z,15.40
2023-04-23T09:00:44.830Z,15.50
2023-04-23T09:03:16.335Z,15.56
2023-04-23T09:05:46.564Z,15.57
2023-04-23T09:08:14.414Z,15.66
2023-04-23T09:10:43.680Z,15.72
2023-04-23T09:13:14.075Z,15.83
2023-04-23T09:16:32.478Z,15.80
2023-04-23T09:19:00.452Z,15.83
2023-04-23T09:21:29.585Z,15.79
2023-04-23T09:24:05.668Z,15.89
2023-04-23T09:26:33.544Z,15.88
2023-04-23T09:29:01.339Z,16.00
2023-04-23T09:31:29.139Z,16.14
2023-04-23T09:33:56.961Z,16.16
2023-04-23T09:36:25.292Z,16.24
2023-04-23T09:38:57.598Z,16.31
2023-04-23T09:41:26.684Z,16.29
2023-04-23T09:43:55.725Z,16.32
2023-04-23T09:46:40.411Z,16.40
2023-04-23T09:49:11.290Z,16.48
2023-04-23T09:51:40.638Z,16.57
2023-04-23T09:54:18.760Z,16.61
2023-04-23T09:56:51.527Z,16.65
2023-04-23T09:59:32.599Z,16.66
2023-04-23T10:02:12.485Z,16.73
2023-04-23T10:04:41.945Z,16.74
2023-04-23T10:09:45.951Z,16.76
2023-04-23T10:14:49.295Z,16.93
2023-04-23T10:17:18.113Z,17.02
2023-04-23T10:19:46.737Z,17.14
2023-04-23T10:22:19.944Z,17.23
2023-04-23T10:24:56.018Z,17.38
2023-04-23T10:27:44.155Z,17.50
2023-04-23T10:30:16.646Z,17.61
2023-04-23T10:32:46.118Z,17.64
2023-04-23T10:35:13.949Z,17.65
2023-04-23T10:37:42.744Z,17.63
2023-04-23T10:40:15.205Z,17.52
2023-04-23T10:42:45.476Z,17.56
2023-04-23T10:45:24.059Z,17.55
2023-04-23T10:47:55.092Z,17.57
2023-04-23T10:50:24.800Z,17.61
2023-04-23T10:52:54.554Z,17.64
2023-04-23T10:55:25.623Z,17.57
2023-04-23T10:58:02.381Z,17.58
2023-04-23T11:00:43.069Z,17.59
2023-04-23T11:03:31.751Z,17.52
2023-04-23T11:06:02.902Z,17.59
2023-04-23T11:08:32.528Z,17.65
2023-04-23T11:11:03.385Z,17.70
2023-04-23T11:13:31.310Z,17.71
2023-04-23T11:16:16.048Z,17.64
2023-04-23T11:18:57.815Z,17.59
2023-04-23T11:21:59.119Z,17.48
2023-04-23T11:24:29.527Z,17.36
2023-04-23T11:26:59.382Z,17.38
2023-04-23T11:29:29.177Z,17.31
2023-04-23T11:32:03.211Z,17.31
2023-04-23T11:34:31.852Z,17.32
2023-04-23T11:37:00.810Z,17.42
2023-04-23T11:39:28.642Z,17.50
2023-04-23T11:41:59.283Z,17.59
2023-04-23T11:44:27.225Z,17.70
2023-04-23T11:46:57.092Z,17.84
2023-04-23T11:49:26.379Z,17.95
2023-04-23T11:51:54.362Z,18.08
2023-04-23T11:54:27.659Z,18.17
2023-04-23T11:56:58.145Z,18.27
2023-04-23T11:59:27.593Z,18.32
2023-04-23T12:01:57.223Z,18.31
2023-04-23T12:04:26.692Z,18.48
2023-04-23T12:06:56.049Z,18.57
2023-04-23T12:09:25.301Z,18.65
2023-04-23T12:11:53.388Z,18.70
2023-04-23T12:14:28.593Z,18.71
2023-04-23T12:16:58.295Z,18.71
2023-04-23T12:19:29.376Z,18.69
2023-04-23T12:21:59.005Z,18.64
2023-04-23T12:24:28.384Z,18.55
2023-04-23T12:26:58.428Z,18.54
2023-04-23T12:29:27.351Z,18.54
2023-04-23T12:31:59.131Z,18.51
2023-04-23T12:34:28.277Z,18.46
2023-04-23T12:36:58.078Z,18.32
2023-04-23T12:39:30.695Z,18.21
2023-04-23T12:42:01.635Z,18.12
2023-04-23T12:44:30.526Z,17.94
2023-04-23T12:47:00.318Z,17.81
2023-04-23T12:49:31.600Z,17.44
2023-04-23T12:52:01.466Z,17.39
2023-04-23T12:54:31.388Z,17.20
2023-04-23T12:57:00.291Z,17.11
2023-04-23T12:59:28.142Z,17.06
2023-04-23T13:01:56.277Z,17.05
2023-04-23T13:04:24.242Z,17.03
2023-04-23T13:06:53.499Z,16.96
2023-04-23T13:09:22.156Z,16.85
2023-04-23T13:11:50.595Z,16.75
2023-04-23T13:14:18.845Z,16.71
2023-04-23T13:16:46.762Z,16.66
2023-04-23T13:19:16.247Z,16.63
2023-04-23T13:21:44.118Z,16.57
2023-04-23T13:24:13.539Z,16.45
2023-04-23T13:26:41.503Z,16.32
2023-04-23T13:29:09.379Z,16.48
2023-04-23T13:31:37.206Z,16.48
2023-04-23T13:34:05.317Z,16.48
2023-04-23T13:36:33.167Z,16.45
2023-04-23T13:39:00.949Z,16.43
2023-04-23T13:41:30.486Z,16.43
2023-04-23T13:43:58.570Z,16.39
2023-04-23T13:46:26.684Z,16.33
2023-04-23T13:48:54.827Z,16.35
2023-04-23T13:51:34.040Z,16.26
2023-04-23T13:54:03.091Z,16.06
2023-04-23T13:56:32.769Z,15.99
2023-04-23T14:01:33.110Z,15.97
2023-04-23T14:04:01.088Z,15.96
2023-04-23T14:06:29.247Z,15.97
2023-04-23T14:08:57.813Z,15.93
2023-04-23T14:11:26.001Z,15.93
2023-04-23T14:13:56.622Z,15.96
2023-04-23T14:16:38.314Z,15.55
2023-04-23T14:19:06.129Z,15.70
2023-04-23T14:21:35.775Z,15.73
2023-04-23T14:24:10.604Z,15.67
2023-04-23T14:26:48.897Z,15.64
2023-04-23T14:29:26.338Z,15.64
2023-04-23T14:31:54.371Z,15.53
2023-04-23T14:34:22.468Z,15.53
2023-04-23T14:36:52.803Z,15.49
2023-04-23T14:39:21.057Z,15.41
2023-04-23T14:41:48.897Z,15.37
2023-04-23T14:44:16.816Z,15.27
2023-04-23T14:46:46.060Z,15.27
2023-04-23T14:49:14.391Z,15.24
2023-04-23T14:51:42.650Z,15.17
2023-04-23T14:54:10.567Z,15.07
2023-04-23T14:56:38.413Z,14.98
2023-04-23T14:59:06.263Z,14.90
2023-04-23T15:01:34.099Z,14.91
2023-04-23T15:04:03.456Z,14.93
2023-04-23T15:06:38.408Z,14.88
2023-04-23T15:09:06.240Z,14.80
2023-04-23T15:11:34.585Z,14.73
2023-04-23T15:14:07.528Z,14.62
2023-04-23T15:19:10.135Z,14.58
2023-04-23T15:21:38.286Z,14.56
2023-04-23T15:24:07.781Z,14.53
2023-04-23T15:26:36.326Z,14.51
2023-04-23T15:29:04.670Z,14.47
2023-04-23T15:31:32.595Z,14.41
2023-04-23T15:34:00.544Z,14.34
2023-04-23T15:36:29.661Z,14.12
2023-04-23T15:38:57.490Z,14.03
2023-04-23T15:41:27.080Z,13.97
2023-04-23T15:43:55.758Z,13.85
2023-04-23T15:46:23.598Z,13.86
2023-04-23T15:48:51.536Z,13.84
2023-04-23T15:51:19.518Z,13.74
2023-04-23T15:53:49.053Z,13.67
2023-04-23T15:56:16.830Z,13.61
2023-04-23T15:58:44.647Z,13.60
2023-04-23T16:01:12.478Z,13.58
2023-04-23T16:03:42.511Z,13.50
2023-04-23T16:06:13.576Z,13.43
2023-04-23T16:08:41.336Z,13.38
2023-04-23T16:11:10.714Z,13.38
2023-04-23T16:13:38.533Z,13.33
2023-04-23T16:16:06.663Z,13.30
2023-04-23T16:18:37.066Z,13.24
2023-04-23T16:21:06.227Z,13.25
2023-04-23T16:23:34.087Z,13.07
2023-04-23T16:26:02.550Z,13.04
2023-04-23T16:28:31.740Z,13.04
2023-04-23T16:30:59.534Z,13.11
2023-04-23T16:33:27.394Z,13.03
2023-04-23T16:35:57.123Z,13.00
2023-04-23T16:38:24.934Z,13.00
2023-04-23T16:40:52.893Z,12.88
2023-04-23T16:43:20.724Z,12.83
2023-04-23T16:45:49.962Z,12.87
2023-04-23T16:48:19.896Z,12.86
2023-04-23T16:50:53.135Z,12.85
2023-04-23T16:53:25.339Z,12.78
2023-04-23T16:55:53.172Z,12.81
2023-04-23T16:58:22.804Z,12.79
2023-04-23T17:00:52.059Z,12.86
2023-04-23T17:03:19.970Z,12.80
2023-04-23T17:05:51.328Z,12.87
2023-04-23T17:08:19.229Z,12.74
2023-04-23T17:10:47.141Z,12.78
2023-04-23T17:13:14.980Z,12.66
2023-04-23T17:15:43.176Z,12.62
2023-04-23T17:18:12.599Z,12.61
2023-04-23T17:20:40.590Z,12.60
2023-04-23T17:23:08.410Z,12.52
2023-04-23T17:25:36.176Z,12.54
2023-04-23T17:28:03.981Z,12.54
2023-04-23T17:30:31.829Z,12.55
2023-04-23T17:32:59.789Z,12.56
2023-04-23T17:35:28.986Z,12.56
2023-04-23T17:37:56.735Z,12.53
2023-04-23T17:40:24.500Z,12.46
2023-04-23T17:42:52.295Z,12.39
2023-04-23T17:45:20.181Z,12.32
2023-04-23T17:47:48.052Z,12.23
2023-04-23T17:50:15.929Z,12.26
2023-04-23T17:52:45.287Z,12.23
2023-04-23T17:55:13.340Z,12.19
2023-04-23T17:57:41.278Z,12.12
2023-04-23T18:00:12.253Z,12.10
2023-04-23T18:02:41.646Z,12.07
2023-04-23T18:05:10.294Z,12.00
2023-04-23T18:07:38.574Z,11.97
2023-04-23T18:10:09.957Z,11.91
2023-04-23T18:12:37.987Z,11.80
2023-04-23T18:15:06.173Z,11.79
2023-04-23T18:17:33.960Z,11.77
2023-04-23T18:20:01.806Z,11.68
2023-04-23T18:22:29.622Z,11.65
2023-04-23T18:24:57.446Z,11.63
2023-04-23T18:27:27.117Z,11.72
2023-04-23T18:29:57.631Z,11.65
2023-04-23T18:32:37.499Z,11.62
2023-04-23T18:35:08.371Z,11.43
2023-04-23T18:37:42.866Z,11.52
2023-04-23T18:40:11.330Z,11.54
2023-04-23T18:42:40.586Z,11.48
2023-04-23T18:45:10.673Z,11.47
2023-04-23T18:47:44.251Z,11.43
2023-04-23T18:50:31.761Z,11.43
2023-04-23T18:52:59.537Z,11.40
2023-04-23T18:55:27.458Z,11.44
2023-04-23T18:57:57.346Z,11.42
2023-04-23T19:00:25.539Z,11.38
2023-04-23T19:02:53.558Z,11.32
2023-04-23T19:05:21.654Z,11.34
2023-04-23T19:07:49.615Z,11.32
2023-04-23T19:10:17.772Z,11.36
2023-04-23T19:12:45.545Z,11.39
2023-04-23T19:15:15.691Z,11.43
2023-04-23T19:17:43.754Z,11.48
2023-04-23T19:20:12.884Z,11.43
2023-04-23T19:22:42.212Z,11.51
2023-04-23T19:25:11.086Z,11.52
2023-04-23T19:27:39.133Z,11.46
2023-04-23T19:30:10.063Z,11.47
2023-04-23T19:32:39.278Z,11.51
2023-04-23T19:35:07.502Z,11.46
2023-04-23T19:37:36.163Z,11.40
2023-04-23T19:40:04.928Z,11.46
2023-04-23T19:42:32.721Z,11.50
2023-04-23T19:45:00.513Z,11.47
2023-04-23T19:47:28.410Z,11.42
2023-04-23T19:49:57.722Z,11.37
2023-04-23T19:52:27.665Z,11.41
2023-04-23T19:54:55.888Z,11.39
2023-04-23T19:57:23.824Z,11.44
2023-04-23T19:59:51.669Z,11.39
2023-04-23T20:02:19.723Z,11.40
2023-04-23T20:04:47.669Z,11.36
2023-04-23T20:07:16.980Z,11.31
2023-04-23T20:09:45.160Z,11.29
2023-04-23T20:12:14.567Z,11.24
2023-04-23T20:14:42.790Z,11.29
2023-04-23T20:17:10.887Z,11.30
2023-04-23T20:19:38.850Z,11.20
2023-04-23T20:22:06.849Z,11.29
2023-04-23T20:24:38.180Z,11.36
2023-04-23T20:27:06.995Z,11.38
2023-04-23T20:29:34.880Z,11.34
2023-04-23T20:32:02.735Z,11.40
2023-04-23T20:34:30.620Z,11.37
2023-04-23T20:37:00.193Z,11.38
2023-04-23T20:39:28.037Z,11.38
2023-04-23T20:41:57.840Z,11.39
2023-04-23T20:44:25.963Z,11.34
2023-04-23T20:46:54.022Z,11.20
2023-04-23T20:49:22.402Z,11.26
2023-04-23T20:51:50.418Z,11.27
2023-04-23T20:54:18.364Z,11.27
2023-04-23T20:56:46.325Z,11.28
2023-04-23T20:59:15.996Z,11.23
2023-04-23T21:01:44.134Z,11.27
2023-04-23T21:04:12.273Z,11.24
2023-04-23T21:06:40.475Z,11.23
2023-04-23T21:09:08.435Z,11.21
2023-04-23T21:11:36.261Z,11.22
2023-04-23T21:14:08.517Z,11.08
2023-04-23T21:16:39.592Z,11.17
2023-04-23T21:19:07.575Z,11.17
2023-04-23T21:21:35.402Z,11.14
2023-04-23T21:24:03.191Z,11.14
2023-04-23T21:26:31.910Z,11.00
2023-04-23T21:28:59.884Z,11.08
2023-04-23T21:31:39.827Z,11.11
2023-04-23T21:34:09.807Z,11.12
2023-04-23T21:36:39.129Z,11.04
2023-04-23T21:39:09.031Z,11.08
2023-04-23T21:41:38.367Z,10.90
2023-04-23T21:44:06.371Z,10.89
2023-04-23T21:46:34.475Z,10.89
2023-04-23T21:49:02.546Z,10.87
2023-04-23T21:51:36.836Z,10.76
2023-04-23T21:54:05.601Z,10.69
2023-04-23T21:56:33.790Z,10.61
2023-04-23T21:59:01.660Z,10.56
2023-04-23T22:01:29.690Z,10.50
2023-04-23T22:03:59.227Z,10.48
2023-04-23T22:06:27.685Z,10.37
2023-04-23T22:08:57.561Z,10.28
2023-04-23T22:11:25.837Z,10.20
2023-04-23T22:13:53.865Z,10.17
2023-04-23T22:16:28.543Z,10.07
2023-04-23T22:18:56.845Z,10.16
2023-04-23T22:21:24.711Z,10.04
2023-04-23T22:23:52.885Z,9.94
2023-04-23T22:26:22.190Z,9.88
2023-04-23T22:28:50.043Z,9.90
2023-04-23T22:31:18.401Z,9.93
2023-04-23T22:33:46.604Z,9.96
2023-04-23T22:36:15.067Z,10.01
2023-04-23T22:38:43.105Z,10.01
2023-04-23T22:41:11.079Z,9.99
2023-04-23T22:43:40.406Z,9.96
2023-04-23T22:46:08.268Z,9.77
2023-04-23T22:48:37.882Z,9.72
2023-04-23T22:51:07.092Z,9.75
2023-04-23T22:53:35.053Z,9.55
2023-04-23T22:56:03.434Z,9.80
2023-04-23T22:58:31.480Z,9.81
2023-04-23T23:01:01.935Z,9.64
2023-04-23T23:03:29.975Z,9.62
2023-04-23T23:05:57.822Z,9.71
2023-04-23T23:08:25.642Z,9.73
2023-04-23T23:10:53.654Z,9.71
2023-04-23T23:13:21.399Z,9.59
2023-04-23T23:15:49.208Z,9.73
2023-04-23T23:18:18.411Z,9.72
2023-04-23T23:20:46.665Z,9.74
2023-04-23T23:23:14.596Z,9.75
2023-04-23T23:25:42.450Z,9.74
2023-04-23T23:28:10.392Z,9.75
2023-04-23T23:30:38.223Z,9.73
2023-04-23T23:33:06.446Z,9.69
2023-04-23T23:35:35.768Z,9.70
2023-04-23T23:38:03.831Z,9.69
2023-04-23T23:40:31.641Z,9.70
2023-04-23T23:42:59.574Z,9.69
2023-04-23T23:45:27.503Z,9.66
2023-04-23T23:47:56.146Z,9.69
2023-04-23T23:50:23.974Z,9.66
2023-04-23T23:52:53.168Z,9.66
2023-04-23T23:55:21.284Z,9.69
2023-04-23T23:57:49.099Z,9.64
